Time;durP1;ratioP1;P1;durP2;ratioP2;P2;SDS_P1;SDS_P2;PMS_P1;PMS_P2;Temp;Humidity;BMP_temperature;BMP_pressure;BME280_temperature;BME280_humidity;BME280_pressure;Samples;Min_cycle;Max_cycle;Signal;HPM_P1;HPM_P2
2021/12/11 00:01:06;;;;;;;74.70;53.35;;;0.90;99.90;;;;;;5021307;28;20056;-71
2021/12/11 00:03:38;;;;;;;53.63;43.55;;;0.80;99.90;;;;;;5012617;28;20030;-71
2021/12/11 00:06:14;;;;;;;68.07;49.20;;;0.80;99.90;;;;;;5010198;28;20072;-71
2021/12/11 00:08:41;;;;;;;87.35;56.03;;;0.80;99.90;;;;;;5026036;28;20033;-72
2021/12/11 00:11:12;;;;;;;86.97;55.83;;;0.80;99.90;;;;;;5023053;28;20036;-72
2021/12/11 00:13:40;;;;;;;94.85;61.20;;;0.80;99.90;;;;;;5020917;28;20489;-72
2021/12/11 00:16:10;;;;;;;53.33;43.63;;;0.80;99.90;;;;;;5026940;28;20057;-72
2021/12/11 00:18:37;;;;;;;75.45;54.00;;;0.70;99.90;;;;;;5016162;28;20053;-71
2021/12/11 00:21:14;;;;;;;90.80;60.80;;;0.70;99.90;;;;;;5015180;28;20441;-72
2021/12/11 00:24:00;;;;;;;66.50;52.72;;;0.80;99.90;;;;;;5020724;28;20022;-71
2021/12/11 00:26:30;;;;;;;83.35;59.40;;;0.90;99.90;;;;;;5022145;28;20028;-71
2021/12/11 00:28:56;;;;;;;74.43;54.40;;;0.80;99.90;;;;;;5028150;28;20046;-71
2021/12/11 00:31:23;;;;;;;101.82;64.35;;;0.80;99.90;;;;;;5020161;28;20029;-72
2021/12/11 00:33:50;;;;;;;107.15;66.32;;;0.80;99.90;;;;;;5028118;28;20021;-71
2021/12/11 00:36:20;;;;;;;115.97;68.15;;;0.70;99.90;;;;;;5024819;28;20022;-72
2021/12/11 00:38:49;;;;;;;75.00;54.80;;;0.70;99.90;;;;;;5026122;28;20032;-72
2021/12/11 00:41:17;;;;;;;90.22;57.40;;;0.70;99.90;;;;;;5023847;28;20055;-71
2021/12/11 00:43:47;;;;;;;56.92;46.42;;;0.70;99.90;;;;;;5023162;28;20067;-71
2021/12/11 00:46:23;;;;;;;59.25;45.97;;;0.70;99.90;;;;;;5020849;28;20030;-72
2021/12/11 00:48:48;;;;;;;78.55;53.63;;;0.70;99.90;;;;;;5021104;28;20021;-72
2021/12/11 00:51:18;;;;;;;79.70;54.03;;;0.70;99.90;;;;;;5022862;28;20025;-72
2021/12/11 00:53:57;;;;;;;122.65;66.15;;;0.70;99.90;;;;;;5020909;28;20052;-71
2021/12/11 00:56:29;;;;;;;71.30;51.25;;;0.70;99.90;;;;;;5023467;28;20484;-71
2021/12/11 00:58:59;;;;;;;169.95;77.78;;;0.60;99.90;;;;;;5026455;28;20038;-70
2021/12/11 01:01:28;;;;;;;183.25;80.47;;;0.60;99.90;;;;;;5031377;28;20025;-71
2021/12/11 01:04:22;;;;;;;123.85;65.82;;;0.60;99.90;;;;;;5021567;28;20384;-72
2021/12/11 01:06:53;;;;;;;173.63;79.90;;;0.60;99.90;;;;;;5027489;28;20388;-71
2021/12/11 01:09:29;;;;;;;91.88;58.63;;;0.80;99.90;;;;;;5023060;28;20108;-70
2021/12/11 01:12:04;;;;;;;140.00;73.30;;;0.70;99.90;;;;;;5023128;28;20025;-70
2021/12/11 01:14:38;;;;;;;71.63;51.65;;;0.70;99.90;;;;;;5021021;28;20021;-70
2021/12/11 01:17:24;;;;;;;78.97;54.70;;;0.70;99.90;;;;;;5011857;28;20026;-70
2021/12/11 01:19:55;;;;;;;87.40;58.08;;;0.70;99.90;;;;;;5019024;28;20391;-72
2021/12/11 01:22:35;;;;;;;88.63;60.17;;;0.80;99.90;;;;;;5026920;28;20032;-71
2021/12/11 01:25:14;;;;;;;97.72;60.72;;;0.80;99.90;;;;;;5015479;28;20022;-72
2021/12/11 01:27:43;;;;;;;109.93;65.45;;;0.90;99.90;;;;;;5025257;28;20013;-71
2021/12/11 01:30:15;;;;;;;102.40;60.97;;;0.90;99.90;;;;;;5026701;28;20029;-72
2021/12/11 01:32:42;;;;;;;111.95;64.70;;;1.00;99.90;;;;;;5017772;28;20374;-72
2021/12/11 01:35:10;;;;;;;116.53;67.20;;;1.00;99.90;;;;;;5015931;28;20441;-72
2021/12/11 01:37:37;;;;;;;109.75;64.45;;;0.90;99.90;;;;;;5013983;28;20112;-72
2021/12/11 01:40:07;;;;;;;92.88;61.33;;;0.80;99.90;;;;;;5015243;28;20057;-72
2021/12/11 01:42:33;;;;;;;82.47;57.05;;;0.90;99.90;;;;;;5014954;28;20030;-72
2021/12/11 01:45:01;;;;;;;85.22;59.13;;;0.80;99.90;;;;;;5013944;28;20392;-71
2021/12/11 01:47:32;;;;;;;74.47;55.00;;;0.80;99.90;;;;;;5014987;28;20026;-72
2021/12/11 01:50:25;;;;;;;76.07;54.65;;;0.80;99.90;;;;;;5015096;28;20426;-72
2021/12/11 01:52:54;;;;;;;114.90;68.30;;;0.90;99.90;;;;;;5015047;28;20032;-72
2021/12/11 01:55:22;;;;;;;117.13;69.65;;;0.90;99.90;;;;;;5014747;28;20022;-72
2021/12/11 01:57:54;;;;;;;119.28;69.97;;;0.90;99.90;;;;;;5013585;28;20124;-72
2021/12/11 02:00:32;;;;;;;124.38;71.00;;;0.80;99.90;;;;;;5013366;28;20091;-72
2021/12/11 02:03:00;;;;;;;132.50;71.38;;;0.70;99.90;;;;;;5015089;28;20385;-73
2021/12/11 02:05:30;;;;;;;140.70;73.60;;;0.60;99.90;;;;;;5014582;28;20022;-73
2021/12/11 02:08:00;;;;;;;128.32;72.07;;;0.50;99.90;;;;;;5014770;28;20515;-74
2021/12/11 02:10:37;;;;;;;146.68;76.68;;;0.50;99.90;;;;;;5014693;28;20053;-72
2021/12/11 02:13:08;;;;;;;178.20;83.82;;;0.60;99.90;;;;;;5013361;28;20030;-72
2021/12/11 02:15:46;;;;;;;196.27;87.15;;;0.50;99.90;;;;;;5014283;28;20039;-71
2021/12/11 02:18:15;;;;;;;200.13;90.90;;;0.50;99.90;;;;;;5014795;28;20049;-71
2021/12/11 02:20:54;;;;;;;199.40;87.28;;;0.60;99.90;;;;;;5013299;28;20117;-71
2021/12/11 02:23:21;;;;;;;191.52;87.60;;;0.60;99.90;;;;;;5014740;28;20025;-71
2021/12/11 02:25:50;;;;;;;189.65;87.10;;;0.60;99.90;;;;;;5014183;28;20523;-71
2021/12/11 02:28:42;;;;;;;183.23;85.90;;;0.60;99.90;;;;;;5014285;28;20029;-71
2021/12/11 02:31:38;;;;;;;178.70;84.57;;;0.70;99.90;;;;;;5012410;28;20021;-71
2021/12/11 02:34:18;;;;;;;170.00;82.60;;;0.70;99.90;;;;;;5013990;28;20087;-71
2021/12/11 02:36:54;;;;;;;160.70;81.55;;;0.60;99.90;;;;;;5013008;28;20318;-72
2021/12/11 02:39:56;;;;;;;173.50;84.47;;;0.60;99.90;;;;;;5012936;28;20483;-71
2021/12/11 02:42:38;;;;;;;170.88;82.47;;;0.60;99.90;;;;;;4982670;28;20034;-72
2021/12/11 02:45:38;;;;;;;164.80;79.50;;;0.70;99.90;;;;;;5013893;28;20086;-71
2021/12/11 02:48:18;;;;;;;179.18;82.35;;;0.70;99.90;;;;;;4992369;28;20034;-72
2021/12/11 02:50:50;;;;;;;151.32;75.85;;;0.70;99.90;;;;;;5028442;28;20122;-71
2021/12/11 02:53:26;;;;;;;207.98;88.28;;;0.70;99.90;;;;;;5026640;28;20032;-71
2021/12/11 02:56:15;;;;;;;168.65;79.53;;;0.70;99.90;;;;;;5017471;28;20117;-72
2021/12/11 02:58:45;;;;;;;211.50;88.43;;;0.70;99.90;;;;;;5011771;28;20036;-71
2021/12/11 03:01:27;;;;;;;197.60;83.80;;;0.70;99.90;;;;;;5013495;28;20065;-72
2021/12/11 03:04:13;;;;;;;178.70;81.97;;;0.80;99.90;;;;;;5012567;28;20033;-71
2021/12/11 03:06:43;;;;;;;176.38;78.38;;;0.70;99.90;;;;;;5012370;28;20034;-71
2021/12/11 03:09:11;;;;;;;273.08;97.25;;;0.60;99.90;;;;;;5012215;28;20026;-71
2021/12/11 03:11:37;;;;;;;231.90;90.18;;;0.60;99.90;;;;;;5013433;28;20544;-71
2021/12/11 03:14:04;;;;;;;235.25;88.05;;;0.60;99.90;;;;;;5023754;28;20133;-71
2021/12/11 03:16:33;;;;;;;284.30;99.78;;;0.60;99.90;;;;;;5019951;28;20483;-71
2021/12/11 03:19:01;;;;;;;236.57;87.53;;;0.60;99.90;;;;;;5021154;28;20100;-73
2021/12/11 03:21:27;;;;;;;249.95;92.38;;;0.50;99.90;;;;;;5026816;28;20026;-71
2021/12/11 03:23:54;;;;;;;180.82;79.43;;;0.50;99.90;;;;;;5022921;28;20383;-70
2021/12/11 03:26:20;;;;;;;263.88;92.18;;;0.50;99.90;;;;;;5030363;28;20091;-72
2021/12/11 03:28:45;;;;;;;190.85;81.97;;;0.60;99.90;;;;;;5012999;28;20484;-71
2021/12/11 03:31:12;;;;;;;149.20;69.45;;;0.60;99.90;;;;;;5013064;28;20065;-72
2021/12/11 03:33:43;;;;;;;178.07;77.20;;;0.60;99.90;;;;;;5013034;28;20065;-72
2021/12/11 03:36:12;;;;;;;181.32;76.00;;;0.60;99.90;;;;;;5012951;28;20117;-73
2021/12/11 03:38:41;;;;;;;179.10;75.38;;;0.60;99.90;;;;;;5013016;28;20029;-73
2021/12/11 03:41:07;;;;;;;143.57;66.13;;;0.50;99.90;;;;;;5012905;28;20447;-72
2021/12/11 03:43:34;;;;;;;188.80;77.13;;;0.50;99.90;;;;;;5025162;28;20025;-71
2021/12/11 03:46:04;;;;;;;156.68;73.05;;;0.50;99.90;;;;;;5026113;28;20022;-73
2021/12/11 03:48:34;;;;;;;174.63;77.75;;;0.50;99.90;;;;;;5012817;28;20026;-73
2021/12/11 03:51:01;;;;;;;101.22;58.45;;;0.50;99.90;;;;;;5011944;28;20397;-72
2021/12/11 03:53:26;;;;;;;178.45;77.25;;;0.50;99.90;;;;;;5012190;28;20057;-72
2021/12/11 03:55:57;;;;;;;205.35;83.43;;;0.50;99.90;;;;;;5030970;28;20029;-73
2021/12/11 03:58:24;;;;;;;153.60;73.80;;;0.50;99.90;;;;;;5031107;28;20104;-73
2021/12/11 04:00:58;;;;;;;176.63;78.28;;;0.50;99.90;;;;;;5011267;28;20111;-73
2021/12/11 04:03:29;;;;;;;186.38;80.40;;;0.60;99.90;;;;;;5012609;28;20030;-72
2021/12/11 04:05:56;;;;;;;199.68;85.18;;;0.60;99.90;;;;;;5011263;28;20108;-73
2021/12/11 04:08:25;;;;;;;194.75;87.72;;;0.50;99.90;;;;;;5011295;28;20022;-71
2021/12/11 04:10:51;;;;;;;154.30;76.82;;;0.50;99.90;;;;;;5012521;28;20033;-72
2021/12/11 04:13:18;;;;;;;193.73;89.20;;;0.50;99.90;;;;;;5012250;28;20072;-72
2021/12/11 04:15:47;;;;;;;253.38;99.65;;;0.70;99.90;;;;;;5010970;28;20393;-71
2021/12/11 04:18:12;;;;;;;217.38;90.30;;;0.70;99.90;;;;;;5012239;28;20026;-71
2021/12/11 04:20:41;;;;;;;217.93;93.38;;;0.70;99.90;;;;;;5012074;28;20076;-72
2021/12/11 04:23:11;;;;;;;265.50;98.25;;;0.70;99.90;;;;;;5029943;28;20123;-71
2021/12/11 04:25:38;;;;;;;205.55;87.97;;;0.70;99.90;;;;;;5031701;28;20387;-71
2021/12/11 04:28:03;;;;;;;216.32;88.93;;;0.70;99.90;;;;;;5031767;28;20095;-70
2021/12/11 04:30:29;;;;;;;248.55;99.38;;;0.60;99.90;;;;;;5031868;28;20053;-71
2021/12/11 04:32:57;;;;;;;191.13;85.38;;;0.60;99.90;;;;;;5030518;28;20026;-71
2021/12/11 04:35:28;;;;;;;249.15;97.43;;;0.60;99.90;;;;;;5019427;28;20029;-71
2021/12/11 04:37:54;;;;;;;222.38;93.45;;;0.50;99.90;;;;;;5012071;28;20484;-70
2021/12/11 04:40:24;;;;;;;194.40;83.93;;;0.50;99.90;;;;;;5010775;28;20025;-71
2021/12/11 04:45:33;;;;;;;176.50;81.47;;;0.50;99.90;;;;;;5012034;28;20025;-71
2021/12/11 04:48:19;;;;;;;128.98;70.05;;;0.60;99.90;;;;;;5010893;28;20022;-70
2021/12/11 04:50:59;;;;;;;132.57;68.90;;;0.60;99.90;;;;;;5010453;28;20032;-71
2021/12/11 04:53:51;;;;;;;226.93;90.90;;;0.70;99.90;;;;;;5011789;28;20022;-72
2021/12/11 04:59:24;;;;;;;442.98;124.28;;;0.60;99.90;;;;;;5011730;28;20032;-71
2021/12/11 05:02:10;;;;;;;603.37;145.07;;;0.50;99.90;;;;;;5010498;28;20033;-71
2021/12/11 05:04:49;;;;;;;247.73;92.47;;;0.50;99.90;;;;;;5011635;28;20018;-71
2021/12/11 05:10:19;;;;;;;197.23;81.88;;;0.60;99.90;;;;;;5025426;28;20108;-71
2021/12/11 05:12:49;;;;;;;259.80;95.18;;;0.60;99.90;;;;;;5022041;28;20036;-71
2021/12/11 05:15:20;;;;;;;204.43;84.35;;;0.70;99.90;;;;;;5024563;28;20022;-72
2021/12/11 05:17:47;;;;;;;219.35;87.72;;;0.70;99.90;;;;;;5011691;28;20022;-72
2021/12/11 05:20:15;;;;;;;177.90;81.93;;;0.70;99.90;;;;;;5011621;28;20025;-72
2021/12/11 05:22:41;;;;;;;156.63;73.97;;;0.60;99.90;;;;;;5025656;28;20040;-71
2021/12/11 05:25:09;;;;;;;184.32;81.75;;;0.70;99.90;;;;;;5031207;28;20097;-71
2021/12/11 05:27:35;;;;;;;197.75;82.65;;;0.70;99.90;;;;;;5016931;28;20061;-72
2021/12/11 05:30:06;;;;;;;197.02;82.80;;;0.70;99.90;;;;;;5011577;28;20021;-71
2021/12/11 05:32:31;;;;;;;191.75;80.43;;;0.70;99.90;;;;;;5011319;28;20407;-71
2021/12/11 05:34:58;;;;;;;175.82;78.13;;;0.70;99.90;;;;;;5011327;28;20113;-72
2021/12/11 05:37:24;;;;;;;175.73;78.93;;;0.70;99.90;;;;;;5010277;28;20030;-73
2021/12/11 05:39:50;;;;;;;156.77;72.15;;;0.70;99.90;;;;;;5020359;28;20040;-71
2021/12/11 05:42:16;;;;;;;169.27;79.95;;;0.70;99.90;;;;;;5018017;28;20400;-71
2021/12/11 05:44:43;;;;;;;195.80;81.88;;;0.70;99.90;;;;;;5030951;28;20032;-71
2021/12/11 05:47:09;;;;;;;169.80;75.25;;;0.70;99.90;;;;;;5014279;28;20030;-73
2021/12/11 05:49:36;;;;;;;180.98;78.65;;;0.70;99.90;;;;;;5010172;28;20026;-72
2021/12/11 05:52:05;;;;;;;214.52;110.05;;;0.70;99.90;;;;;;5011195;28;20476;-72
2021/12/11 05:54:31;;;;;;;147.48;71.93;;;0.70;99.90;;;;;;5009885;28;20518;-72
2021/12/11 05:57:02;;;;;;;129.60;65.78;;;0.70;99.90;;;;;;5010330;28;20358;-72
2021/12/11 05:59:29;;;;;;;144.15;69.32;;;0.70;99.90;;;;;;5009851;28;20034;-72
2021/12/11 06:02:09;;;;;;;133.65;64.55;;;0.70;99.90;;;;;;5011617;28;20030;-71
2021/12/11 06:04:38;;;;;;;133.23;66.88;;;0.70;99.90;;;;;;5011166;28;20053;-72
2021/12/11 06:07:07;;;;;;;130.13;65.10;;;0.60;99.90;;;;;;5013445;28;20033;-71
2021/12/11 06:09:34;;;;;;;126.85;63.63;;;0.60;99.90;;;;;;5015015;28;20425;-71
2021/12/11 06:12:07;;;;;;;123.43;64.95;;;0.70;99.90;;;;;;5001663;28;20480;-71
2021/12/11 06:14:34;;;;;;;150.68;69.72;;;0.70;99.90;;;;;;5029068;28;20044;-71
2021/12/11 06:17:03;;;;;;;107.68;59.40;;;0.70;99.90;;;;;;5026550;28;20584;-71
2021/12/11 06:19:29;;;;;;;114.00;59.05;;;0.70;99.90;;;;;;5014710;28;20377;-71
2021/12/11 06:21:56;;;;;;;139.50;65.03;;;0.70;99.90;;;;;;5022646;28;20032;-71
2021/12/11 06:24:23;;;;;;;123.53;61.38;;;0.70;99.90;;;;;;5018980;28;20113;-72
2021/12/11 06:26:49;;;;;;;133.65;62.05;;;0.80;99.90;;;;;;5014412;28;20025;-72
2021/12/11 06:29:15;;;;;;;114.60;56.72;;;0.70;99.90;;;;;;5029485;28;20049;-71
2021/12/11 06:31:43;;;;;;;129.73;62.88;;;0.70;99.90;;;;;;5034000;28;20060;-71
2021/12/11 06:34:09;;;;;;;113.63;58.67;;;0.80;99.90;;;;;;5031572;28;20075;-72
2021/12/11 06:36:34;;;;;;;125.00;61.47;;;0.80;99.90;;;;;;5022845;28;20434;-71
2021/12/11 06:39:05;;;;;;;100.65;54.17;;;0.80;99.90;;;;;;5033653;28;20442;-70
2021/12/11 06:41:34;;;;;;;131.68;62.95;;;0.80;99.90;;;;;;5025569;28;20072;-71
2021/12/11 06:44:01;;;;;;;105.10;55.65;;;0.80;99.90;;;;;;5013842;28;20028;-71
2021/12/11 06:46:27;;;;;;;122.65;59.42;;;0.80;99.90;;;;;;5014163;28;20018;-71
2021/12/11 06:48:53;;;;;;;112.13;57.70;;;0.80;99.90;;;;;;5014050;28;20534;-71
2021/12/11 06:51:19;;;;;;;119.25;58.92;;;0.80;99.90;;;;;;5012645;28;20022;-70
2021/12/11 06:53:50;;;;;;;129.35;60.72;;;0.80;99.90;;;;;;5014777;28;20160;-71
2021/12/11 06:56:18;;;;;;;85.05;49.80;;;0.80;99.90;;;;;;5016069;28;20022;-71
2021/12/11 06:58:44;;;;;;;90.07;51.63;;;0.80;99.90;;;;;;5014482;28;20377;-70
2021/12/11 07:01:11;;;;;;;111.32;54.85;;;0.80;99.90;;;;;;5022582;28;20034;-70
2021/12/11 07:03:39;;;;;;;112.00;56.13;;;0.80;99.90;;;;;;5012994;28;20084;-71
2021/12/11 07:06:06;;;;;;;92.32;51.38;;;0.80;99.90;;;;;;5015947;28;20080;-70
2021/12/11 07:08:32;;;;;;;111.68;57.33;;;0.80;99.90;;;;;;5015956;28;20022;-70
2021/12/11 07:10:59;;;;;;;109.28;55.67;;;0.80;99.90;;;;;;5022827;28;20045;-70
2021/12/11 07:13:25;;;;;;;114.88;55.53;;;0.80;99.90;;;;;;5013444;28;20025;-70
2021/12/11 07:15:52;;;;;;;97.60;52.10;;;0.90;99.90;;;;;;5012064;28;20559;-70
2021/12/11 07:18:18;;;;;;;108.13;56.83;;;0.90;99.90;;;;;;5012237;28;20036;-70
2021/12/11 07:20:44;;;;;;;89.45;51.22;;;0.90;99.90;;;;;;5023374;28;20091;-70
2021/12/11 07:23:10;;;;;;;90.75;51.55;;;1.00;99.90;;;;;;5032966;28;20491;-70
2021/12/11 07:26:01;;;;;;;109.97;55.67;;;1.00;99.90;;;;;;5032843;28;20025;-70
2021/12/11 07:28:27;;;;;;;96.95;53.67;;;1.00;99.90;;;;;;5027167;28;20037;-70
2021/12/11 07:30:55;;;;;;;100.43;54.42;;;1.00;99.90;;;;;;5032533;28;20619;-72
2021/12/11 07:33:21;;;;;;;121.72;56.90;;;1.10;99.90;;;;;;5011685;28;20060;-71
2021/12/11 07:35:49;;;;;;;96.45;52.08;;;1.10;99.90;;;;;;5011544;28;20416;-71
2021/12/11 07:38:15;;;;;;;103.03;53.92;;;1.00;99.90;;;;;;5013134;28;20030;-72
2021/12/11 07:40:52;;;;;;;108.00;57.92;;;1.00;99.90;;;;;;5012983;28;20030;-71
2021/12/11 07:43:20;;;;;;;117.75;57.10;;;1.00;99.90;;;;;;5012873;28;20052;-70
2021/12/11 07:45:46;;;;;;;125.10;58.30;;;0.80;99.90;;;;;;5012607;28;20164;-72
2021/12/11 07:48:12;;;;;;;156.15;64.57;;;0.80;99.90;;;;;;5023387;28;20049;-70
2021/12/11 07:50:39;;;;;;;190.45;71.40;;;0.80;99.90;;;;;;5032501;28;20581;-72
2021/12/11 07:53:05;;;;;;;187.80;69.85;;;0.70;99.90;;;;;;5031230;28;20022;-71
2021/12/11 07:55:32;;;;;;;113.65;57.53;;;0.70;99.90;;;;;;5030979;28;20033;-71
2021/12/11 07:57:58;;;;;;;142.02;61.88;;;0.80;99.90;;;;;;5032628;28;20021;-71
2021/12/11 08:00:26;;;;;;;84.47;48.30;;;0.90;99.90;;;;;;5030715;28;20068;-71
2021/12/11 08:02:52;;;;;;;99.15;53.78;;;0.80;99.90;;;;;;5021197;28;20550;-72
2021/12/11 08:05:19;;;;;;;101.70;54.05;;;0.80;99.90;;;;;;5012321;28;20397;-71
2021/12/11 08:07:44;;;;;;;101.05;54.00;;;0.90;99.90;;;;;;5012594;28;20049;-70
2021/12/11 08:10:15;;;;;;;105.32;55.00;;;0.90;99.90;;;;;;5011138;28;20463;-70
2021/12/11 08:12:41;;;;;;;101.28;54.92;;;1.00;99.90;;;;;;5012578;28;20484;-73
2021/12/11 08:15:08;;;;;;;113.75;57.92;;;1.10;99.90;;;;;;5017241;28;20095;-72
2021/12/11 08:17:34;;;;;;;83.15;49.78;;;1.10;99.90;;;;;;5030855;28;20439;-72
2021/12/11 08:19:59;;;;;;;94.65;53.45;;;1.10;99.90;;;;;;5017591;28;20025;-73
2021/12/11 08:22:25;;;;;;;93.18;52.53;;;1.10;99.90;;;;;;5019356;28;20399;-72
2021/12/11 08:24:51;;;;;;;109.90;56.38;;;1.00;99.90;;;;;;5025209;28;20037;-73
2021/12/11 08:27:20;;;;;;;93.72;51.80;;;1.10;99.90;;;;;;5022210;28;20022;-72
2021/12/11 08:29:47;;;;;;;93.75;53.08;;;1.10;99.90;;;;;;5018424;28;20040;-73
2021/12/11 08:32:13;;;;;;;94.75;52.72;;;1.30;99.90;;;;;;5031779;28;20017;-73
2021/12/11 08:34:40;;;;;;;94.57;51.95;;;1.20;99.90;;;;;;5020648;28;20028;-72
2021/12/11 08:37:08;;;;;;;87.82;50.80;;;1.10;99.90;;;;;;5010942;28;20030;-72
2021/12/11 08:39:34;;;;;;;93.18;54.42;;;1.20;99.90;;;;;;4998890;28;20054;-73
2021/12/11 08:42:02;;;;;;;81.40;47.58;;;1.20;99.90;;;;;;5010545;28;20518;-72
2021/12/11 08:44:34;;;;;;;93.32;50.00;;;1.20;99.90;;;;;;4998780;28;20037;-72
2021/12/11 08:47:01;;;;;;;83.53;48.45;;;1.20;99.90;;;;;;5011952;28;20499;-71
2021/12/11 08:49:31;;;;;;;81.55;48.05;;;1.30;99.90;;;;;;5010655;28;20033;-73
2021/12/11 08:52:06;;;;;;;83.47;49.00;;;1.30;99.90;;;;;;5011874;28;20370;-72
2021/12/11 08:54:33;;;;;;;74.40;46.03;;;1.40;99.90;;;;;;5011455;28;20037;-71
2021/12/11 08:57:04;;;;;;;81.50;49.50;;;1.30;99.90;;;;;;5011804;28;20049;-74
2021/12/11 08:59:34;;;;;;;82.30;50.35;;;1.30;99.90;;;;;;5011817;28;20163;-73
2021/12/11 09:02:10;;;;;;;79.70;49.00;;;1.30;99.90;;;;;;5010310;28;20116;-73
2021/12/11 09:04:45;;;;;;;75.57;47.28;;;1.40;99.90;;;;;;5011444;28;20026;-72
2021/12/11 09:07:25;;;;;;;80.82;55.28;;;1.30;99.90;;;;;;5010347;28;20030;-73
2021/12/11 09:10:20;;;;;;;75.70;48.25;;;1.40;99.90;;;;;;5011690;28;20453;-72
2021/12/11 09:13:10;;;;;;;68.25;43.38;;;1.50;99.90;;;;;;5011770;28;20052;-73
2021/12/11 09:15:59;;;;;;;60.78;40.15;;;1.50;99.90;;;;;;5011475;28;20477;-72
2021/12/11 09:18:31;;;;;;;62.05;41.88;;;1.60;99.90;;;;;;5011116;28;20576;-72
2021/12/11 09:21:02;;;;;;;61.28;38.70;;;1.60;99.90;;;;;;5022940;28;20435;-72
2021/12/11 09:23:38;;;;;;;66.82;42.20;;;1.50;99.90;;;;;;5023489;28;20022;-72
2021/12/11 09:26:23;;;;;;;53.28;38.40;;;1.60;99.90;;;;;;5010439;28;20053;-72
2021/12/11 09:29:01;;;;;;;54.80;37.22;;;1.60;99.90;;;;;;5011590;28;20022;-72
2021/12/11 09:31:35;;;;;;;61.53;40.97;;;1.50;99.90;;;;;;5016954;28;20064;-72
2021/12/11 09:34:17;;;;;;;53.15;37.60;;;1.60;99.90;;;;;;5017405;28;20030;-72
2021/12/11 09:36:47;;;;;;;54.25;36.80;;;1.60;99.90;;;;;;5010183;28;20064;-72
2021/12/11 09:39:24;;;;;;;49.30;35.97;;;1.70;99.90;;;;;;5015273;28;20053;-72
2021/12/11 09:41:49;;;;;;;51.03;36.95;;;1.70;99.90;;;;;;5023551;28;20057;-72
2021/12/11 09:44:17;;;;;;;49.05;34.85;;;1.80;99.90;;;;;;5014790;28;20056;-72
2021/12/11 09:46:46;;;;;;;53.63;37.65;;;1.70;99.90;;;;;;5014866;28;20021;-72
2021/12/11 09:49:19;;;;;;;49.13;35.13;;;1.80;99.90;;;;;;5014569;28;20021;-72
2021/12/11 09:51:47;;;;;;;51.33;36.65;;;2.00;99.90;;;;;;5014730;28;20025;-72
2021/12/11 09:54:21;;;;;;;51.60;36.53;;;1.90;99.90;;;;;;5002030;28;20053;-72
2021/12/11 09:57:00;;;;;;;51.75;35.15;;;1.80;99.90;;;;;;5016285;28;20357;-72
2021/12/11 09:59:30;;;;;;;50.85;36.95;;;1.80;99.90;;;;;;5023629;28;20030;-72
2021/12/11 10:02:04;;;;;;;44.75;32.92;;;1.90;99.90;;;;;;5027937;28;20040;-73
2021/12/11 10:04:36;;;;;;;48.15;35.92;;;1.90;99.90;;;;;;5025921;28;20108;-72
2021/12/11 10:09:49;;;;;;;47.60;34.22;;;1.90;99.90;;;;;;5015777;28;20173;-71
2021/12/11 10:12:36;;;;;;;46.67;34.13;;;1.90;99.90;;;;;;5011287;28;20080;-72
2021/12/11 10:15:13;;;;;;;47.90;34.47;;;1.80;99.90;;;;;;5012442;28;20026;-72
2021/12/11 10:17:45;;;;;;;45.88;33.58;;;2.00;99.90;;;;;;5014424;28;20397;-72
2021/12/11 10:20:21;;;;;;;45.75;33.90;;;1.90;99.90;;;;;;5013107;28;20037;-72
2021/12/11 10:22:47;;;;;;;;;;;1.80;99.90;;;;;;5014964;28;20025;-73
2021/12/11 10:25:17;;;;;;;48.30;34.05;;;2.00;99.90;;;;;;5012920;28;20260;-73
2021/12/11 10:27:44;;;;;;;47.13;33.40;;;1.90;99.90;;;;;;5014416;28;20029;-72
2021/12/11 10:30:15;;;;;;;36.78;29.05;;;2.00;99.90;;;;;;5013030;28;20026;-71
2021/12/11 10:32:41;;;;;;;36.40;27.80;;;1.90;99.90;;;;;;5014173;28;20033;-73
2021/12/11 10:35:12;;;;;;;34.25;25.17;;;2.00;99.90;;;;;;5013850;28;20017;-73
2021/12/11 10:37:40;;;;;;;29.50;24.08;;;2.00;99.90;;;;;;5012976;28;20061;-72
2021/12/11 10:40:13;;;;;;;30.60;25.35;;;2.00;99.90;;;;;;5012867;28;20026;-73
2021/12/11 10:42:40;;;;;;;30.02;24.52;;;2.10;99.90;;;;;;5012772;28;20499;-73
2021/12/11 10:45:07;;;;;;;24.17;19.17;;;2.10;99.90;;;;;;5013788;28;20061;-73
2021/12/11 10:47:40;;;;;;;26.88;19.98;;;2.00;99.90;;;;;;5012669;28;20022;-72
2021/12/11 10:50:19;;;;;;;25.60;21.67;;;1.90;99.90;;;;;;5013949;28;20014;-72
2021/12/11 10:52:45;;;;;;;29.05;22.60;;;1.90;99.90;;;;;;5013940;28;20412;-72
2021/12/11 10:55:17;;;;;;;26.13;20.42;;;2.00;99.90;;;;;;5013902;28;20484;-73
2021/12/11 10:57:43;;;;;;;22.45;18.23;;;1.90;99.90;;;;;;5014660;28;20392;-73
2021/12/11 11:00:17;;;;;;;22.63;18.23;;;1.90;99.90;;;;;;5017938;28;20049;-72
2021/12/11 11:02:43;;;;;;;21.27;17.75;;;1.90;99.90;;;;;;5023961;28;20022;-72
2021/12/11 11:05:14;;;;;;;21.52;17.13;;;1.90;99.90;;;;;;5012149;28;20091;-72
2021/12/11 11:07:42;;;;;;;23.80;18.42;;;1.80;99.90;;;;;;5012417;28;20072;-72
2021/12/11 11:10:16;;;;;;;20.33;16.58;;;1.80;99.90;;;;;;5027067;28;20022;-72
2021/12/11 11:12:42;;;;;;;20.83;16.80;;;1.80;99.90;;;;;;5013656;28;20033;-72
2021/12/11 11:15:08;;;;;;;19.83;15.90;;;1.80;99.90;;;;;;5017747;28;20029;-72
2021/12/11 11:17:34;;;;;;;21.00;17.40;;;1.80;99.90;;;;;;5014304;28;20038;-72
2021/12/11 11:20:04;;;;;;;21.02;17.92;;;1.70;99.90;;;;;;5026747;28;20105;-73
2021/12/11 11:22:34;;;;;;;22.25;18.33;;;1.70;99.90;;;;;;5013221;28;20049;-73
2021/12/11 11:25:04;;;;;;;22.92;18.15;;;1.80;99.90;;;;;;5025689;28;20025;-73
2021/12/11 11:27:30;;;;;;;24.75;17.33;;;1.90;99.90;;;;;;5026492;28;20022;-72
2021/12/11 11:29:57;;;;;;;20.67;17.00;;;1.80;99.90;;;;;;5013402;28;20440;-73
2021/12/11 11:32:34;;;;;;;20.60;18.05;;;1.80;99.90;;;;;;5012737;28;20014;-72
2021/12/11 11:35:05;;;;;;;20.88;16.23;;;1.80;99.90;;;;;;5020756;28;20017;-73
2021/12/11 11:37:32;;;;;;;22.20;16.77;;;1.80;99.90;;;;;;5013574;28;20116;-70
2021/12/11 11:39:58;;;;;;;20.35;16.67;;;1.80;99.90;;;;;;5010970;28;20025;-73
2021/12/11 11:42:24;;;;;;;18.88;16.88;;;1.80;99.90;;;;;;5009622;28;20028;-73
2021/12/11 11:44:51;;;;;;;20.60;17.48;;;1.80;99.90;;;;;;5011551;28;20113;-72
2021/12/11 11:47:18;;;;;;;19.40;15.60;;;1.80;99.90;;;;;;5011994;28;20022;-72
2021/12/11 11:49:44;;;;;;;18.38;15.93;;;1.80;99.90;;;;;;5012227;28;20045;-70
2021/12/11 11:52:14;;;;;;;17.13;14.85;;;1.80;99.90;;;;;;5010475;28;20502;-72
2021/12/11 11:54:43;;;;;;;17.33;15.10;;;1.80;99.90;;;;;;5013672;28;20524;-73
2021/12/11 11:57:38;;;;;;;18.73;15.48;;;1.80;99.90;;;;;;5010141;28;20535;-73
2021/12/11 12:00:13;;;;;;;18.98;15.68;;;1.60;99.90;;;;;;5011836;28;20120;-74
2021/12/11 12:02:40;;;;;;;19.23;16.23;;;1.60;99.90;;;;;;5011256;28;20483;-71
2021/12/11 12:05:06;;;;;;;20.50;17.00;;;1.60;99.90;;;;;;5010470;28;20423;-73
2021/12/11 12:07:32;;;;;;;20.50;16.77;;;1.60;99.90;;;;;;5011884;28;20061;-73
2021/12/11 12:10:09;;;;;;;18.98;16.15;;;1.80;99.90;;;;;;5011277;28;20376;-73
2021/12/11 12:12:35;;;;;;;19.95;15.70;;;1.80;99.90;;;;;;5011272;28;20393;-73
2021/12/11 12:15:03;;;;;;;18.50;15.50;;;1.80;99.90;;;;;;5012207;28;20101;-73
2021/12/11 12:17:30;;;;;;;18.92;16.13;;;1.70;99.90;;;;;;5012378;28;20028;-73
2021/12/11 12:19:57;;;;;;;20.45;17.10;;;1.70;99.90;;;;;;5012407;28;20030;-73
2021/12/11 12:22:25;;;;;;;21.42;17.02;;;1.80;99.90;;;;;;5017381;28;20072;-73
2021/12/11 12:24:53;;;;;;;24.05;18.20;;;1.80;99.90;;;;;;5017377;28;20036;-73
2021/12/11 12:27:21;;;;;;;18.98;16.73;;;1.70;99.90;;;;;;5032148;28;20049;-73
2021/12/11 12:29:48;;;;;;;25.13;18.40;;;1.80;99.90;;;;;;5031835;28;20021;-73
2021/12/11 12:32:19;;;;;;;20.75;17.13;;;1.80;99.90;;;;;;5019078;28;20380;-73
2021/12/11 12:34:46;;;;;;;20.85;18.42;;;1.90;99.90;;;;;;5004459;28;20025;-74
2021/12/11 12:37:12;;;;;;;21.98;17.08;;;2.00;99.90;;;;;;5012575;28;20101;-72
2021/12/11 12:39:43;;;;;;;18.17;16.13;;;2.20;99.90;;;;;;5017490;28;20026;-72
2021/12/11 12:42:22;;;;;;;18.92;14.60;;;2.10;99.90;;;;;;5010622;28;20033;-72
2021/12/11 12:44:54;;;;;;;20.80;16.20;;;2.00;99.90;;;;;;5011658;28;20022;-73
2021/12/11 12:47:24;;;;;;;20.10;16.35;;;2.10;99.90;;;;;;5011832;28;20026;-72
2021/12/11 12:49:54;;;;;;;18.17;15.88;;;2.30;99.90;;;;;;5010553;28;20022;-73
2021/12/11 12:52:24;;;;;;;22.23;16.60;;;2.10;99.90;;;;;;5016620;28;20014;-72
2021/12/11 12:54:51;;;;;;;19.48;17.38;;;2.20;99.90;;;;;;5030112;28;20493;-72
2021/12/11 12:57:22;;;;;;;21.63;17.98;;;2.00;99.90;;;;;;5031768;28;20022;-73
2021/12/11 12:59:57;;;;;;;20.00;16.58;;;1.90;99.90;;;;;;5031446;28;20103;-72
2021/12/11 13:02:27;;;;;;;17.92;15.05;;;1.90;99.90;;;;;;5031565;28;20021;-71